Etusivu
METAR-TAF:

METAR-TAF

Lentoasemat :

Minocqua / Woodruff, Wisconsin, Yhdysvallat

Leveyspiiri: 45-56N, Pituuspiiri: 089-44W, korkeus merenpinnasta: 496 m

Tämänhetkinen sää

Tämä raportti tehtiin 24 minuuttia sitten, kello 09.35 UTC
Tuuli 14 kn pohjoisen/luoteesta puuskistuen 20 kn:hen
Lämpötila -4°C
Kosteus 86%
Ilmanpaine 1010 hPa
Näkyvyys: 4.0 km
Hajonneita pilviä 1400 ft:n korkeudessa
Pilvistä 1900 ft:n korkeudessa
heikkoa lumisadetta

METAR: KARV 180935Z AUTO 34014G20KT 2 1/2SM -SN BKN014 OVC019 M04/M06 A2982 RMK AO2 T10431058

Aika: 03:59 (09:59 UTC)


TAF: puuttuu

Säähavainnot ja -ennusteet yli 4000 lentoasemalta (METAR- ja TAF-raportit).

Käytössä olevat sääasemat on merkitty karttaan keltaisilla ja punaisilla pisteillä.

Aseta hiiri pisteen päälle nähdäksesi sääaseman nimen.

Klikkaa sitten nähdäksesi säähavainnot ja -ennusteet.

Kartan vaihtaminen: klikkaa mustalla rastilla varustettuja vihreitä pisteitä, niin voit zoomata sisään; viivalla varustettua vihreää pistettä, niin voit zoomata ulos tai vihreitä nuolia, niin pääset viereisille kartoille.


METAR-TAF: